createdAt,value
2024-04-18T00:02:09.229Z,5.10
2024-04-18T00:04:37.688Z,4.20
2024-04-18T00:07:05.874Z,4.40
2024-04-18T00:09:33.497Z,4.70
2024-04-18T00:12:01.346Z,4.30
2024-04-18T00:14:29.171Z,5.20
2024-04-18T00:16:57.173Z,5.30
2024-04-18T00:19:25.042Z,5.00
2024-04-18T00:21:53.193Z,4.30
2024-04-18T00:24:21.079Z,4.60
2024-04-18T00:26:48.946Z,5.00
2024-04-18T00:29:16.848Z,6.20
2024-04-18T00:31:45.022Z,6.20
2024-04-18T00:34:13.027Z,5.50
2024-04-18T00:36:40.827Z,5.90
2024-04-18T00:39:08.769Z,5.60
2024-04-18T00:41:36.300Z,6.50
2024-04-18T00:44:04.416Z,7.50
2024-04-18T00:46:32.469Z,7.90
2024-04-18T00:49:00.328Z,8.70
2024-04-18T00:51:28.873Z,8.10
2024-04-18T00:53:57.258Z,8.40
2024-04-18T00:56:25.243Z,8.10
2024-04-18T00:58:52.981Z,7.40
2024-04-18T01:01:21.818Z,7.20
2024-04-18T01:03:50.327Z,8.10
2024-04-18T01:06:18.364Z,7.10
2024-04-18T01:08:46.317Z,7.20
2024-04-18T01:11:14.038Z,6.10
2024-04-18T01:13:41.755Z,6.80
2024-04-18T01:16:09.354Z,6.30
2024-04-18T01:18:37.367Z,6.20
2024-04-18T01:21:05.594Z,6.30
2024-04-18T01:23:33.515Z,6.40
2024-04-18T01:26:01.355Z,6.00
2024-04-18T01:28:29.978Z,6.10
2024-04-18T01:31:00.420Z,5.90
2024-04-18T01:33:28.615Z,6.00
2024-04-18T01:35:56.560Z,5.80
2024-04-18T01:38:24.498Z,6.00
2024-04-18T01:40:52.981Z,5.80
2024-04-18T01:43:21.149Z,5.90
2024-04-18T01:45:49.112Z,6.10
2024-04-18T01:48:17.356Z,5.60
2024-04-18T01:50:45.426Z,5.90
2024-04-18T01:53:13.115Z,6.00
2024-04-18T01:55:40.995Z,5.60
2024-04-18T01:58:08.879Z,5.80
2024-04-18T02:00:37.022Z,5.90
2024-04-18T02:03:05.360Z,5.70
2024-04-18T02:05:33.390Z,5.80
2024-04-18T02:08:01.251Z,6.30
2024-04-18T02:10:29.053Z,6.60
2024-04-18T02:12:59.604Z,6.90
2024-04-18T02:15:27.700Z,7.00
2024-04-18T02:17:55.854Z,6.80
2024-04-18T02:20:23.824Z,6.70
2024-04-18T02:22:51.476Z,6.40
2024-04-18T02:25:19.793Z,7.10
2024-04-18T02:27:47.830Z,6.80
2024-04-18T02:30:15.688Z,7.10
2024-04-18T02:32:44.066Z,7.10
2024-04-18T02:35:12.080Z,7.40
2024-04-18T02:37:40.249Z,7.40
2024-04-18T02:40:08.517Z,7.70
2024-04-18T02:42:36.225Z,7.50
2024-04-18T02:45:04.447Z,7.90
2024-04-18T02:47:32.296Z,7.90
2024-04-18T02:50:00.202Z,8.00
2024-04-18T02:52:28.496Z,8.10
2024-04-18T02:54:56.331Z,7.60
2024-04-18T02:57:25.107Z,8.00
2024-04-18T02:59:53.088Z,8.50
2024-04-18T03:02:21.413Z,7.70
2024-04-18T03:04:49.339Z,7.90
2024-04-18T03:07:17.711Z,7.70
2024-04-18T03:09:45.561Z,8.00
2024-04-18T03:12:13.460Z,7.50
2024-04-18T03:14:42.011Z,8.50
2024-04-18T03:17:10.395Z,7.90
2024-04-18T03:19:38.274Z,8.50
2024-04-18T03:22:06.467Z,8.90
2024-04-18T03:24:34.468Z,10.50
2024-04-18T03:27:02.480Z,22.00
2024-04-18T03:29:30.551Z,14.80
2024-04-18T03:31:58.870Z,12.10
2024-04-18T03:34:26.747Z,17.70
2024-04-18T03:36:55.283Z,9.60
2024-04-18T03:39:23.109Z,9.90
2024-04-18T03:41:50.931Z,8.90
2024-04-18T03:44:18.650Z,8.60
2024-04-18T03:46:46.396Z,9.30
2024-04-18T03:49:14.422Z,9.10
2024-04-18T03:51:42.185Z,9.70
2024-04-18T03:54:10.244Z,9.40
2024-04-18T03:56:38.206Z,10.10
2024-04-18T03:59:05.981Z,8.50
2024-04-18T04:01:36.163Z,9.20
2024-04-18T04:04:04.336Z,9.00
2024-04-18T04:06:35.380Z,8.30
2024-04-18T04:09:03.715Z,8.00
2024-04-18T04:11:31.963Z,9.40
2024-04-18T04:14:00.950Z,8.70
2024-04-18T04:16:29.027Z,8.70
2024-04-18T04:18:57.870Z,9.10
2024-04-18T04:21:25.746Z,8.70
2024-04-18T04:23:54.051Z,8.60
2024-04-18T04:26:22.139Z,8.70
2024-04-18T04:28:50.023Z,8.50
2024-04-18T04:31:18.010Z,9.50
2024-04-18T04:33:45.761Z,9.90
2024-04-18T04:36:13.577Z,10.20
2024-04-18T04:38:41.344Z,10.30
2024-04-18T04:41:09.070Z,10.40
2024-04-18T04:43:36.975Z,11.20
2024-04-18T04:46:05.363Z,10.10
2024-04-18T04:48:35.799Z,11.50
2024-04-18T04:51:04.909Z,10.80
2024-04-18T04:53:32.949Z,10.70
2024-04-18T04:56:00.817Z,10.50
2024-04-18T04:58:28.903Z,10.60
2024-04-18T05:00:58.389Z,12.20
2024-04-18T05:03:26.635Z,11.00
2024-04-18T05:05:54.607Z,9.70
2024-04-18T05:08:22.327Z,10.70
2024-04-18T05:10:50.434Z,10.30
2024-04-18T05:13:18.340Z,10.00
2024-04-18T05:15:48.255Z,9.90
2024-04-18T05:18:18.976Z,10.20
2024-04-18T05:20:47.239Z,10.20
2024-04-18T05:23:15.384Z,9.20
2024-04-18T05:25:43.539Z,10.40
2024-04-18T05:28:12.180Z,10.70
2024-04-18T05:30:58.902Z,10.40
2024-04-18T05:35:55.161Z,9.20
2024-04-18T05:38:23.242Z,10.00
2024-04-18T05:40:50.957Z,9.60
2024-04-18T05:43:19.060Z,9.20
2024-04-18T05:45:47.579Z,9.00
2024-04-18T05:48:15.690Z,9.50
2024-04-18T05:50:43.890Z,9.40
2024-04-18T05:53:12.063Z,9.80
2024-04-18T05:55:40.954Z,10.00
2024-04-18T05:58:08.690Z,9.80
2024-04-18T06:00:36.898Z,9.70
2024-04-18T06:03:05.535Z,9.90
2024-04-18T06:05:33.532Z,9.60
2024-04-18T06:08:01.419Z,9.80
2024-04-18T06:10:29.356Z,8.90
2024-04-18T06:12:57.132Z,9.50
2024-04-18T06:15:25.124Z,9.90
2024-04-18T06:17:53.391Z,9.20
2024-04-18T06:20:24.204Z,8.80
2024-04-18T06:22:51.891Z,9.00
2024-04-18T06:25:19.843Z,7.90
2024-04-18T06:27:48.800Z,7.50
2024-04-18T06:30:17.292Z,7.00
2024-04-18T06:32:46.197Z,7.70
2024-04-18T06:35:15.076Z,6.40
2024-04-18T06:37:42.961Z,6.40
2024-04-18T06:40:11.145Z,6.50
2024-04-18T06:42:39.559Z,6.70
2024-04-18T06:45:07.621Z,6.10
2024-04-18T06:47:35.531Z,6.10
2024-04-18T06:50:04.396Z,6.30
2024-04-18T06:52:33.047Z,7.00
2024-04-18T06:55:00.672Z,5.80
2024-04-18T06:57:29.050Z,5.80
2024-04-18T06:59:57.466Z,6.70
2024-04-18T07:02:25.387Z,6.40
2024-04-18T07:04:53.372Z,6.60
2024-04-18T07:07:21.839Z,6.90
2024-04-18T07:09:50.298Z,7.00
2024-04-18T07:12:18.187Z,7.20
2024-04-18T07:14:46.151Z,6.80
2024-04-18T07:17:13.882Z,6.50
2024-04-18T07:19:44.355Z,6.80
2024-04-18T07:22:12.207Z,6.80
2024-04-18T07:24:43.624Z,6.10
2024-04-18T07:27:12.426Z,6.20
2024-04-18T07:29:40.421Z,6.40
2024-04-18T07:32:08.884Z,6.10
2024-04-18T07:34:36.590Z,5.10
2024-04-18T07:37:04.880Z,5.60
2024-04-18T07:39:33.021Z,5.70
2024-04-18T07:42:00.791Z,5.40
2024-04-18T07:44:28.964Z,6.00
2024-04-18T07:46:57.307Z,5.20
2024-04-18T07:49:25.321Z,5.40
2024-04-18T07:51:53.281Z,4.80
2024-04-18T07:54:21.565Z,5.10
2024-04-18T07:56:49.677Z,5.40
2024-04-18T07:59:18.596Z,4.80
2024-04-18T08:01:49.000Z,5.60
2024-04-18T08:04:35.388Z,5.50
2024-04-18T08:07:11.474Z,4.80
2024-04-18T08:09:46.121Z,4.60
2024-04-18T08:12:24.216Z,4.40
2024-04-18T08:15:00.664Z,4.30
2024-04-18T08:17:32.806Z,3.70
2024-04-18T08:20:00.834Z,4.00
2024-04-18T08:22:32.063Z,4.30
2024-04-18T08:24:59.739Z,4.20
2024-04-18T08:27:27.811Z,3.40
2024-04-18T08:29:55.759Z,3.80
2024-04-18T08:32:24.418Z,3.40
2024-04-18T08:34:52.623Z,3.80
2024-04-18T08:37:21.336Z,4.00
2024-04-18T08:39:48.936Z,3.50
2024-04-18T08:42:19.816Z,3.60
2024-04-18T08:44:51.018Z,4.00
2024-04-18T08:47:19.367Z,3.70
2024-04-18T08:49:47.066Z,3.20
2024-04-18T08:52:15.852Z,3.20
2024-04-18T08:54:43.752Z,3.30
2024-04-18T08:57:14.309Z,4.00
2024-04-18T08:59:44.800Z,4.00
2024-04-18T09:02:13.705Z,3.90
2024-04-18T09:04:42.206Z,3.30
2024-04-18T09:07:09.946Z,3.30
2024-04-18T09:09:37.810Z,3.10
2024-04-18T09:12:07.627Z,3.20
2024-04-18T09:14:35.484Z,3.60
2024-04-18T09:17:11.966Z,3.60
2024-04-18T09:19:39.592Z,3.20
2024-04-18T09:22:07.664Z,3.50
2024-04-18T09:24:38.619Z,3.70
2024-04-18T09:27:06.748Z,3.40
2024-04-18T09:29:35.243Z,3.40
2024-04-18T09:32:03.866Z,3.20
2024-04-18T09:34:35.015Z,3.00
2024-04-18T09:37:04.593Z,3.50
2024-04-18T09:39:33.923Z,3.00
2024-04-18T09:42:17.489Z,2.90
2024-04-18T09:44:50.627Z,2.90
2024-04-18T09:47:19.659Z,3.50
2024-04-18T09:49:50.984Z,3.00
2024-04-18T09:52:19.639Z,2.90
2024-04-18T09:54:47.839Z,2.90
2024-04-18T09:57:16.138Z,2.40
2024-04-18T09:59:44.190Z,2.90
2024-04-18T10:02:13.511Z,3.00
2024-04-18T10:04:42.253Z,2.40
2024-04-18T10:07:12.300Z,2.50
2024-04-18T10:09:40.901Z,2.70
2024-04-18T10:12:10.370Z,2.20
2024-04-18T10:14:38.444Z,2.20
2024-04-18T10:17:08.893Z,1.90
2024-04-18T10:19:42.651Z,2.40
2024-04-18T10:22:23.510Z,1.90
2024-04-18T10:24:57.646Z,1.90
2024-04-18T10:27:26.248Z,1.80
2024-04-18T10:29:57.732Z,2.10
2024-04-18T10:32:32.867Z,1.80
2024-04-18T10:35:01.273Z,1.60
2024-04-18T10:37:29.288Z,1.60
2024-04-18T10:39:59.734Z,1.50
2024-04-18T10:42:28.224Z,1.70
2024-04-18T10:44:56.667Z,1.40
2024-04-18T10:47:25.404Z,1.70
2024-04-18T10:49:53.423Z,1.80
2024-04-18T10:52:21.258Z,1.80
2024-04-18T10:54:51.221Z,1.80
2024-04-18T10:57:19.856Z,2.00
2024-04-18T10:59:48.916Z,2.00
2024-04-18T11:02:17.059Z,1.80
2024-04-18T11:04:45.131Z,1.80
2024-04-18T11:07:13.614Z,1.40
2024-04-18T11:09:45.073Z,1.70
2024-04-18T11:12:15.092Z,1.40
2024-04-18T11:14:43.063Z,1.30
2024-04-18T11:17:11.206Z,1.50
2024-04-18T11:19:39.670Z,1.60
2024-04-18T11:22:07.325Z,1.70
2024-04-18T11:24:36.046Z,1.30
2024-04-18T11:27:05.543Z,1.30
2024-04-18T11:29:33.646Z,1.70
2024-04-18T11:32:14.048Z,1.20
2024-04-18T11:34:45.417Z,1.50
2024-04-18T11:37:13.356Z,1.40
2024-04-18T11:39:42.120Z,2.50
2024-04-18T11:42:10.085Z,1.40
2024-04-18T11:44:37.970Z,1.20
2024-04-18T11:47:05.949Z,1.40
2024-04-18T11:49:33.788Z,1.30
2024-04-18T11:52:01.579Z,1.30
2024-04-18T11:54:29.963Z,1.30
2024-04-18T11:56:58.263Z,2.30
2024-04-18T11:59:26.222Z,1.40
2024-04-18T12:01:54.482Z,1.40
2024-04-18T12:04:22.550Z,1.20
2024-04-18T12:06:51.782Z,1.40
2024-04-18T12:09:20.011Z,1.40
2024-04-18T12:11:48.263Z,1.50
2024-04-18T12:14:16.470Z,1.50
2024-04-18T12:16:44.966Z,1.70
2024-04-18T12:19:12.824Z,1.90
2024-04-18T12:21:40.646Z,1.70
2024-04-18T12:24:08.669Z,2.50
2024-04-18T12:26:36.625Z,3.10
2024-04-18T12:29:05.484Z,1.40
2024-04-18T12:31:34.196Z,1.50
2024-04-18T12:34:01.898Z,1.60
2024-04-18T12:36:30.781Z,2.30
2024-04-18T12:38:59.975Z,2.70
2024-04-18T12:41:28.357Z,3.10
2024-04-18T12:43:56.191Z,7.50
2024-04-18T12:46:25.603Z,2.40
2024-04-18T12:48:57.845Z,1.50
2024-04-18T12:51:26.224Z,2.50
2024-04-18T12:53:56.636Z,1.10
2024-04-18T12:56:25.214Z,1.50
2024-04-18T12:58:53.037Z,1.20
2024-04-18T13:01:21.162Z,1.80
2024-04-18T13:03:50.036Z,1.50
2024-04-18T13:06:18.715Z,1.40
2024-04-18T13:08:47.443Z,1.30
2024-04-18T13:11:15.649Z,1.30
2024-04-18T13:13:43.719Z,1.20
2024-04-18T13:16:12.340Z,0.90
2024-04-18T13:18:41.197Z,0.70
2024-04-18T13:21:09.177Z,1.60
2024-04-18T13:23:37.538Z,1.20
2024-04-18T13:26:05.799Z,1.80
2024-04-18T13:28:34.055Z,2.30
2024-04-18T13:31:02.317Z,4.10
2024-04-18T13:33:31.605Z,1.60
2024-04-18T13:36:02.275Z,2.00
2024-04-18T13:38:32.010Z,3.00
2024-04-18T13:41:00.483Z,1.30
2024-04-18T13:43:29.442Z,3.50
2024-04-18T13:46:00.724Z,1.90
2024-04-18T13:48:28.843Z,1.10
2024-04-18T13:50:57.062Z,1.00
2024-04-18T13:53:25.002Z,3.30
2024-04-18T13:55:53.074Z,4.40
2024-04-18T13:58:23.281Z,3.90
2024-04-18T14:00:53.684Z,4.00
2024-04-18T14:03:21.851Z,2.90
2024-04-18T14:05:50.081Z,1.80
2024-04-18T14:08:18.252Z,2.50
2024-04-18T14:10:46.039Z,1.80
2024-04-18T14:13:15.707Z,4.20
2024-04-18T14:16:03.443Z,1.90
2024-04-18T14:18:49.947Z,2.70
2024-04-18T14:21:18.651Z,0.90
2024-04-18T14:23:46.663Z,1.80
2024-04-18T14:26:14.834Z,1.30
2024-04-18T14:28:42.671Z,0.90
2024-04-18T14:31:10.395Z,1.20
2024-04-18T14:33:38.497Z,1.20
2024-04-18T14:36:07.418Z,1.30
2024-04-18T14:38:35.650Z,1.20
2024-04-18T14:41:09.923Z,1.10
2024-04-18T14:43:42.912Z,1.00
2024-04-18T14:46:10.945Z,1.20
2024-04-18T14:48:40.670Z,2.40
2024-04-18T14:51:08.593Z,1.30
2024-04-18T14:53:37.273Z,7.90
2024-04-18T14:56:05.550Z,6.90
2024-04-18T14:58:33.724Z,4.10
2024-04-18T15:01:01.848Z,2.10
2024-04-18T15:03:30.913Z,2.90
2024-04-18T15:06:00.426Z,2.50
2024-04-18T15:08:28.461Z,2.20
2024-04-18T15:10:57.554Z,2.30
2024-04-18T15:13:27.080Z,3.10
2024-04-18T15:15:54.855Z,5.10
2024-04-18T15:18:24.652Z,3.70
2024-04-18T15:20:52.791Z,2.60
2024-04-18T15:23:20.682Z,2.70
2024-04-18T15:25:48.780Z,2.80
2024-04-18T15:28:17.920Z,2.50
2024-04-18T15:30:46.120Z,2.20
2024-04-18T15:33:14.203Z,2.60
2024-04-18T15:35:43.190Z,3.80
2024-04-18T15:38:11.350Z,4.80
2024-04-18T15:40:39.732Z,3.30
2024-04-18T15:43:07.729Z,4.40
2024-04-18T15:45:42.049Z,3.40
2024-04-18T15:48:10.115Z,4.00
2024-04-18T15:50:38.662Z,2.60
2024-04-18T15:53:06.528Z,2.70
2024-04-18T15:55:34.410Z,2.90
2024-04-18T15:58:04.200Z,2.60
2024-04-18T16:00:33.441Z,1.90
2024-04-18T16:03:01.179Z,1.90
2024-04-18T16:05:30.469Z,2.90
2024-04-18T16:07:58.538Z,3.00
2024-04-18T16:10:26.553Z,2.80
2024-04-18T16:12:54.475Z,2.60
2024-04-18T16:15:22.602Z,2.70
2024-04-18T16:17:50.564Z,2.80
2024-04-18T16:20:19.759Z,2.20
2024-04-18T16:22:47.780Z,1.30
2024-04-18T16:25:15.851Z,1.30
2024-04-18T16:27:43.789Z,1.50
2024-04-18T16:30:11.994Z,1.50
2024-04-18T16:32:40.429Z,1.50
2024-04-18T16:35:09.010Z,1.60
2024-04-18T16:37:40.850Z,1.20
2024-04-18T16:40:09.300Z,1.60
2024-04-18T16:42:37.437Z,11.80
2024-04-18T16:45:06.359Z,2.60
2024-04-18T16:47:34.980Z,5.80
2024-04-18T16:50:03.635Z,2.50
2024-04-18T16:52:32.026Z,19.30
2024-04-18T16:54:59.978Z,2.30
2024-04-18T16:57:32.580Z,2.80
2024-04-18T17:00:01.344Z,1.80
2024-04-18T17:02:29.319Z,22.10
2024-04-18T17:04:57.270Z,4.00
2024-04-18T17:07:25.249Z,2.70
2024-04-18T17:09:53.312Z,6.30
2024-04-18T17:12:21.305Z,2.60
2024-04-18T17:14:54.002Z,2.60
2024-04-18T17:17:22.535Z,2.70
2024-04-18T17:19:50.917Z,4.30
2024-04-18T17:22:21.063Z,4.00
2024-04-18T17:24:49.493Z,3.50
2024-04-18T17:27:18.206Z,2.70
2024-04-18T17:29:46.807Z,2.10
2024-04-18T17:32:14.865Z,2.50
2024-04-18T17:34:42.882Z,2.10
2024-04-18T17:37:11.320Z,2.30
2024-04-18T17:39:39.736Z,2.80
2024-04-18T17:42:07.677Z,3.30
2024-04-18T17:44:35.930Z,4.30
2024-04-18T17:47:04.578Z,3.40
2024-04-18T17:49:32.411Z,2.70
2024-04-18T17:52:00.349Z,3.20
2024-04-18T17:54:28.601Z,36.40
2024-04-18T17:56:56.900Z,17.20
2024-04-18T17:59:26.206Z,5.40
2024-04-18T18:01:54.367Z,3.30
2024-04-18T18:04:24.009Z,3.20
2024-04-18T18:06:52.602Z,2.30
2024-04-18T18:09:21.070Z,2.30
2024-04-18T18:11:49.599Z,2.30
2024-04-18T18:14:18.144Z,2.80
2024-04-18T18:16:46.274Z,3.10
2024-04-18T18:19:17.598Z,3.50
2024-04-18T18:21:46.633Z,4.80
2024-04-18T18:24:15.517Z,3.10
2024-04-18T18:26:44.805Z,3.10
2024-04-18T18:29:12.974Z,5.90
2024-04-18T18:31:41.273Z,3.20
2024-04-18T18:34:11.374Z,2.80
2024-04-18T18:36:39.716Z,2.40
2024-04-18T18:39:13.309Z,2.10
2024-04-18T18:41:41.627Z,1.70
2024-04-18T18:44:09.612Z,1.80
2024-04-18T18:46:38.947Z,2.10
2024-04-18T18:49:07.079Z,3.10
2024-04-18T18:51:35.372Z,10.50
2024-04-18T18:54:05.506Z,29.30
2024-04-18T18:56:34.040Z,9.20
2024-04-18T18:59:03.035Z,2.90
2024-04-18T19:01:31.638Z,3.60
2024-04-18T19:04:03.519Z,3.10
2024-04-18T19:06:32.548Z,2.90
2024-04-18T19:09:01.890Z,3.10
2024-04-18T19:11:31.115Z,4.90
2024-04-18T19:13:59.649Z,6.60
2024-04-18T19:16:29.213Z,3.70
2024-04-18T19:18:58.536Z,2.80
2024-04-18T19:21:26.771Z,2.30
2024-04-18T19:23:58.706Z,2.30
2024-04-18T19:26:27.804Z,2.10
2024-04-18T19:28:56.270Z,2.40
2024-04-18T19:31:27.619Z,11.40
2024-04-18T19:33:57.331Z,12.00
2024-04-18T19:36:25.523Z,17.90
2024-04-18T19:38:53.575Z,20.20
2024-04-18T19:41:22.773Z,18.90
2024-04-18T19:43:53.221Z,17.00
2024-04-18T19:46:26.520Z,10.00
2024-04-18T19:48:56.073Z,5.00
2024-04-18T19:51:24.222Z,8.80
2024-04-18T19:53:54.659Z,11.00
2024-04-18T19:56:22.613Z,16.10
2024-04-18T19:58:55.713Z,28.10
2024-04-18T20:01:28.419Z,27.40
2024-04-18T20:03:59.354Z,24.90
2024-04-18T20:06:35.296Z,16.30
2024-04-18T20:09:05.452Z,14.20
2024-04-18T20:11:36.376Z,11.20
2024-04-18T20:14:05.267Z,7.30
2024-04-18T20:16:35.317Z,3.90
2024-04-18T20:19:06.135Z,3.50
2024-04-18T20:21:34.643Z,3.50
2024-04-18T20:24:02.922Z,6.40
2024-04-18T20:26:30.766Z,5.80
2024-04-18T20:28:58.713Z,4.80
2024-04-18T20:31:27.295Z,3.90
2024-04-18T20:33:58.435Z,3.60
2024-04-18T20:36:28.566Z,3.60
2024-04-18T20:38:57.352Z,4.20
2024-04-18T20:41:25.534Z,4.50
2024-04-18T20:43:53.522Z,5.60
2024-04-18T20:46:26.001Z,4.90
2024-04-18T20:48:54.712Z,4.80
2024-04-18T20:51:23.670Z,4.70
2024-04-18T20:53:51.634Z,4.30
2024-04-18T20:56:19.888Z,4.40
2024-04-18T20:58:49.381Z,4.20
2024-04-18T21:01:17.445Z,3.20
2024-04-18T21:03:45.683Z,3.60
2024-04-18T21:06:13.933Z,3.40
2024-04-18T21:08:45.258Z,3.10
2024-04-18T21:11:14.446Z,3.20
2024-04-18T21:13:43.129Z,2.90
2024-04-18T21:16:13.866Z,3.00
2024-04-18T21:18:42.930Z,2.70
2024-04-18T21:21:11.199Z,2.70
2024-04-18T21:23:39.724Z,2.70
2024-04-18T21:26:07.791Z,3.20
2024-04-18T21:28:35.865Z,3.50
2024-04-18T21:31:03.932Z,4.00
2024-04-18T21:33:31.897Z,4.80
2024-04-18T21:36:01.020Z,4.80
2024-04-18T21:38:30.561Z,3.70
2024-04-18T21:41:01.440Z,3.20
2024-04-18T21:43:30.032Z,3.10
2024-04-18T21:45:57.895Z,3.20
2024-04-18T21:48:26.131Z,3.30
2024-04-18T21:50:54.353Z,3.20
2024-04-18T21:53:22.513Z,3.20
2024-04-18T21:55:50.489Z,3.00
2024-04-18T21:58:18.446Z,2.90
2024-04-18T22:00:46.585Z,3.40
2024-04-18T22:03:14.699Z,2.90
2024-04-18T22:05:43.573Z,2.80
2024-04-18T22:08:11.442Z,3.20
2024-04-18T22:10:39.416Z,3.10
2024-04-18T22:13:07.784Z,3.30
2024-04-18T22:15:36.181Z,3.20
2024-04-18T22:18:06.054Z,3.60
2024-04-18T22:20:34.553Z,3.90
2024-04-18T22:23:04.876Z,3.70
2024-04-18T22:25:32.679Z,4.10
2024-04-18T22:28:00.967Z,4.10
2024-04-18T22:30:28.932Z,4.40
2024-04-18T22:32:57.161Z,4.40
2024-04-18T22:35:25.158Z,4.30
2024-04-18T22:37:53.052Z,4.10
2024-04-18T22:40:20.920Z,4.80
2024-04-18T22:42:49.011Z,4.70
2024-04-18T22:45:17.795Z,4.60
2024-04-18T22:47:46.631Z,4.30
2024-04-18T22:50:14.589Z,4.10
2024-04-18T22:52:42.563Z,4.00
2024-04-18T22:55:12.167Z,4.30
2024-04-18T22:57:40.531Z,3.90
2024-04-18T23:00:09.819Z,4.30
2024-04-18T23:02:38.039Z,5.30
2024-04-18T23:05:06.497Z,5.60
2024-04-18T23:07:34.360Z,6.00
2024-04-18T23:10:02.323Z,7.30
2024-04-18T23:12:30.549Z,6.10
2024-04-18T23:14:58.557Z,5.70
2024-04-18T23:17:26.923Z,5.10
2024-04-18T23:19:54.830Z,4.60
2024-04-18T23:22:22.886Z,4.70
2024-04-18T23:24:51.904Z,4.40
2024-04-18T23:27:19.789Z,4.40
2024-04-18T23:29:47.934Z,4.70
2024-04-18T23:32:15.856Z,4.30
2024-04-18T23:34:44.124Z,4.50
2024-04-18T23:37:12.372Z,4.50
2024-04-18T23:39:40.547Z,4.40
2024-04-18T23:42:09.780Z,4.30
2024-04-18T23:44:37.701Z,4.60
2024-04-18T23:47:09.560Z,4.70
2024-04-18T23:49:37.393Z,4.70
2024-04-18T23:52:05.886Z,4.90
2024-04-18T23:54:33.824Z,4.90
2024-04-18T23:57:01.815Z,4.70
2024-04-18T23:59:29.784Z,4.90
